sensor_id;sensor_type;location;lat;lon;timestamp;P1;durP1;ratioP1;P2;durP2;ratioP2
29238;SDS011;16267;48.194;11.546;2022-12-10T00:01:11;57.80;;;30.43;;
29238;SDS011;16267;48.194;11.546;2022-12-10T00:03:41;57.60;;;30.42;;
29238;SDS011;16267;48.194;11.546;2022-12-10T00:06:09;56.42;;;30.77;;
29238;SDS011;16267;48.194;11.546;2022-12-10T00:08:37;59.15;;;31.10;;
29238;SDS011;16267;48.194;11.546;2022-12-10T00:11:04;59.70;;;31.17;;
29238;SDS011;16267;48.194;11.546;2022-12-10T00:13:33;60.58;;;31.25;;
29238;SDS011;16267;48.194;11.546;2022-12-10T00:16:01;57.47;;;30.67;;
29238;SDS011;16267;48.194;11.546;2022-12-10T00:18:29;57.53;;;29.85;;
29238;SDS011;16267;48.194;11.546;2022-12-10T00:20:55;55.15;;;30.13;;
29238;SDS011;16267;48.194;11.546;2022-12-10T00:23:20;57.45;;;30.10;;
29238;SDS011;16267;48.194;11.546;2022-12-10T00:25:47;54.03;;;30.25;;
29238;SDS011;16267;48.194;11.546;2022-12-10T00:28:13;50.03;;;28.35;;
29238;SDS011;16267;48.194;11.546;2022-12-10T00:30:39;57.35;;;29.63;;
29238;SDS011;16267;48.194;11.546;2022-12-10T00:33:05;57.70;;;30.02;;
29238;SDS011;16267;48.194;11.546;2022-12-10T00:35:31;57.97;;;30.77;;
29238;SDS011;16267;48.194;11.546;2022-12-10T00:38:00;56.33;;;30.92;;
29238;SDS011;16267;48.194;11.546;2022-12-10T00:40:26;54.55;;;30.13;;
29238;SDS011;16267;48.194;11.546;2022-12-10T00:42:52;56.15;;;29.50;;
29238;SDS011;16267;48.194;11.546;2022-12-10T00:45:17;54.35;;;29.90;;
29238;SDS011;16267;48.194;11.546;2022-12-10T00:47:43;52.10;;;28.70;;
29238;SDS011;16267;48.194;11.546;2022-12-10T00:50:09;59.50;;;30.83;;
29238;SDS011;16267;48.194;11.546;2022-12-10T00:52:35;58.15;;;29.67;;
29238;SDS011;16267;48.194;11.546;2022-12-10T00:55:01;56.33;;;30.83;;
29238;SDS011;16267;48.194;11.546;2022-12-10T00:57:27;56.45;;;29.77;;
29238;SDS011;16267;48.194;11.546;2022-12-10T00:59:52;61.30;;;31.73;;
29238;SDS011;16267;48.194;11.546;2022-12-10T01:02:18;62.78;;;31.52;;
29238;SDS011;16267;48.194;11.546;2022-12-10T01:04:44;65.55;;;31.73;;
29238;SDS011;16267;48.194;11.546;2022-12-10T01:07:10;59.42;;;30.88;;
29238;SDS011;16267;48.194;11.546;2022-12-10T01:09:36;59.90;;;32.13;;
29238;SDS011;16267;48.194;11.546;2022-12-10T01:12:02;59.75;;;31.35;;
29238;SDS011;16267;48.194;11.546;2022-12-10T01:14:33;59.05;;;31.73;;
29238;SDS011;16267;48.194;11.546;2022-12-10T01:17:00;60.28;;;31.33;;
29238;SDS011;16267;48.194;11.546;2022-12-10T01:19:29;59.20;;;31.92;;
29238;SDS011;16267;48.194;11.546;2022-12-10T01:21:56;66.45;;;33.05;;
29238;SDS011;16267;48.194;11.546;2022-12-10T01:24:24;60.03;;;32.25;;
29238;SDS011;16267;48.194;11.546;2022-12-10T01:26:52;57.38;;;31.90;;
29238;SDS011;16267;48.194;11.546;2022-12-10T01:29:20;60.65;;;31.40;;
29238;SDS011;16267;48.194;11.546;2022-12-10T01:31:45;62.45;;;31.85;;
29238;SDS011;16267;48.194;11.546;2022-12-10T01:34:17;61.95;;;31.95;;
29238;SDS011;16267;48.194;11.546;2022-12-10T01:36:43;59.75;;;32.28;;
29238;SDS011;16267;48.194;11.546;2022-12-10T01:39:14;60.95;;;31.25;;
29238;SDS011;16267;48.194;11.546;2022-12-10T01:41:49;61.83;;;32.80;;
29238;SDS011;16267;48.194;11.546;2022-12-10T01:46:45;61.60;;;31.80;;
29238;SDS011;16267;48.194;11.546;2022-12-10T01:51:43;61.28;;;32.10;;
29238;SDS011;16267;48.194;11.546;2022-12-10T01:54:16;62.58;;;32.63;;
29238;SDS011;16267;48.194;11.546;2022-12-10T01:56:58;59.38;;;30.90;;
29238;SDS011;16267;48.194;11.546;2022-12-10T01:59:31;59.00;;;31.38;;
29238;SDS011;16267;48.194;11.546;2022-12-10T02:02:10;63.70;;;32.95;;
29238;SDS011;16267;48.194;11.546;2022-12-10T02:05:36;64.72;;;31.58;;
29238;SDS011;16267;48.194;11.546;2022-12-10T02:11:37;65.30;;;32.50;;
29238;SDS011;16267;48.194;11.546;2022-12-10T02:14:17;64.32;;;32.05;;
29238;SDS011;16267;48.194;11.546;2022-12-10T02:16:51;67.53;;;32.65;;
29238;SDS011;16267;48.194;11.546;2022-12-10T02:22:26;61.85;;;31.77;;
29238;SDS011;16267;48.194;11.546;2022-12-10T02:24:58;70.75;;;33.88;;
29238;SDS011;16267;48.194;11.546;2022-12-10T02:27:35;64.63;;;31.88;;
29238;SDS011;16267;48.194;11.546;2022-12-10T02:30:19;61.20;;;30.90;;
29238;SDS011;16267;48.194;11.546;2022-12-10T02:32:45;67.50;;;33.13;;
29238;SDS011;16267;48.194;11.546;2022-12-10T02:35:19;63.65;;;32.53;;
29238;SDS011;16267;48.194;11.546;2022-12-10T02:37:55;68.45;;;32.45;;
29238;SDS011;16267;48.194;11.546;2022-12-10T02:40:31;65.35;;;33.05;;
29238;SDS011;16267;48.194;11.546;2022-12-10T02:42:59;61.83;;;31.67;;
29238;SDS011;16267;48.194;11.546;2022-12-10T02:45:25;62.95;;;32.40;;
29238;SDS011;16267;48.194;11.546;2022-12-10T02:47:56;61.58;;;30.88;;
29238;SDS011;16267;48.194;11.546;2022-12-10T02:50:25;62.03;;;31.08;;
29238;SDS011;16267;48.194;11.546;2022-12-10T02:52:51;57.38;;;29.23;;
29238;SDS011;16267;48.194;11.546;2022-12-10T02:55:17;57.83;;;29.75;;
29238;SDS011;16267;48.194;11.546;2022-12-10T03:00:53;60.83;;;31.92;;
29238;SDS011;16267;48.194;11.546;2022-12-10T03:03:59;55.92;;;29.17;;
29238;SDS011;16267;48.194;11.546;2022-12-10T03:06:46;59.95;;;29.90;;
29238;SDS011;16267;48.194;11.546;2022-12-10T03:09:27;53.33;;;29.15;;
29238;SDS011;16267;48.194;11.546;2022-12-10T03:12:02;50.88;;;28.52;;
29238;SDS011;16267;48.194;11.546;2022-12-10T03:14:43;53.03;;;29.33;;
29238;SDS011;16267;48.194;11.546;2022-12-10T03:17:10;55.50;;;30.17;;
29238;SDS011;16267;48.194;11.546;2022-12-10T03:19:40;49.78;;;28.20;;
29238;SDS011;16267;48.194;11.546;2022-12-10T03:22:11;51.67;;;29.57;;
29238;SDS011;16267;48.194;11.546;2022-12-10T03:24:40;57.25;;;30.15;;
29238;SDS011;16267;48.194;11.546;2022-12-10T03:27:09;59.80;;;30.35;;
29238;SDS011;16267;48.194;11.546;2022-12-10T03:29:39;55.80;;;29.80;;
29238;SDS011;16267;48.194;11.546;2022-12-10T03:32:12;54.50;;;30.02;;
29238;SDS011;16267;48.194;11.546;2022-12-10T03:34:39;50.03;;;27.08;;
29238;SDS011;16267;48.194;11.546;2022-12-10T03:37:08;52.15;;;27.58;;
29238;SDS011;16267;48.194;11.546;2022-12-10T03:39:35;51.28;;;28.70;;
29238;SDS011;16267;48.194;11.546;2022-12-10T03:42:03;52.08;;;29.20;;
29238;SDS011;16267;48.194;11.546;2022-12-10T03:44:31;51.88;;;27.90;;
29238;SDS011;16267;48.194;11.546;2022-12-10T03:47:00;47.03;;;26.63;;
29238;SDS011;16267;48.194;11.546;2022-12-10T03:49:27;47.17;;;26.50;;
29238;SDS011;16267;48.194;11.546;2022-12-10T03:51:53;49.53;;;27.02;;
29238;SDS011;16267;48.194;11.546;2022-12-10T03:54:18;45.67;;;26.58;;
29238;SDS011;16267;48.194;11.546;2022-12-10T03:56:44;48.45;;;27.63;;
29238;SDS011;16267;48.194;11.546;2022-12-10T03:59:10;47.40;;;27.67;;
29238;SDS011;16267;48.194;11.546;2022-12-10T04:01:36;42.15;;;25.88;;
29238;SDS011;16267;48.194;11.546;2022-12-10T04:04:05;44.97;;;25.70;;
29238;SDS011;16267;48.194;11.546;2022-12-10T04:06:31;46.20;;;24.92;;
29238;SDS011;16267;48.194;11.546;2022-12-10T04:08:57;45.83;;;25.70;;
29238;SDS011;16267;48.194;11.546;2022-12-10T04:11:23;45.25;;;24.60;;
29238;SDS011;16267;48.194;11.546;2022-12-10T04:13:49;45.47;;;24.73;;
29238;SDS011;16267;48.194;11.546;2022-12-10T04:16:34;48.40;;;25.98;;
29238;SDS011;16267;48.194;11.546;2022-12-10T04:19:03;49.20;;;25.67;;
29238;SDS011;16267;48.194;11.546;2022-12-10T04:21:32;44.80;;;25.63;;
29238;SDS011;16267;48.194;11.546;2022-12-10T04:24:19;48.50;;;25.33;;
29238;SDS011;16267;48.194;11.546;2022-12-10T04:27:11;47.65;;;26.48;;
29238;SDS011;16267;48.194;11.546;2022-12-10T04:29:50;46.78;;;24.92;;
29238;SDS011;16267;48.194;11.546;2022-12-10T04:32:17;48.40;;;25.15;;
29238;SDS011;16267;48.194;11.546;2022-12-10T04:34:44;44.10;;;26.02;;
29238;SDS011;16267;48.194;11.546;2022-12-10T04:37:10;44.03;;;26.08;;
29238;SDS011;16267;48.194;11.546;2022-12-10T04:39:36;50.65;;;26.55;;
29238;SDS011;16267;48.194;11.546;2022-12-10T04:42:03;47.70;;;26.05;;
29238;SDS011;16267;48.194;11.546;2022-12-10T04:44:29;45.15;;;24.98;;
29238;SDS011;16267;48.194;11.546;2022-12-10T04:46:55;45.67;;;26.45;;
29238;SDS011;16267;48.194;11.546;2022-12-10T04:49:21;44.33;;;26.17;;
29238;SDS011;16267;48.194;11.546;2022-12-10T04:51:48;44.78;;;25.88;;
29238;SDS011;16267;48.194;11.546;2022-12-10T04:54:15;46.50;;;26.63;;
29238;SDS011;16267;48.194;11.546;2022-12-10T04:56:41;46.40;;;26.98;;
29238;SDS011;16267;48.194;11.546;2022-12-10T04:59:07;49.42;;;25.88;;
29238;SDS011;16267;48.194;11.546;2022-12-10T05:01:35;49.95;;;28.33;;
29238;SDS011;16267;48.194;11.546;2022-12-10T05:04:03;50.90;;;27.33;;
29238;SDS011;16267;48.194;11.546;2022-12-10T05:06:31;52.42;;;26.15;;
29238;SDS011;16267;48.194;11.546;2022-12-10T05:08:58;47.85;;;26.85;;
29238;SDS011;16267;48.194;11.546;2022-12-10T05:11:25;44.30;;;25.73;;
29238;SDS011;16267;48.194;11.546;2022-12-10T05:13:53;51.45;;;28.27;;
29238;SDS011;16267;48.194;11.546;2022-12-10T05:16:21;49.05;;;28.02;;
29238;SDS011;16267;48.194;11.546;2022-12-10T05:18:49;47.67;;;26.17;;
29238;SDS011;16267;48.194;11.546;2022-12-10T05:21:16;49.53;;;27.20;;
29238;SDS011;16267;48.194;11.546;2022-12-10T05:23:46;48.03;;;26.70;;
29238;SDS011;16267;48.194;11.546;2022-12-10T05:26:21;46.30;;;25.55;;
29238;SDS011;16267;48.194;11.546;2022-12-10T05:28:49;51.00;;;26.60;;
29238;SDS011;16267;48.194;11.546;2022-12-10T05:31:27;50.83;;;27.00;;
29238;SDS011;16267;48.194;11.546;2022-12-10T05:33:54;49.20;;;27.67;;
29238;SDS011;16267;48.194;11.546;2022-12-10T05:36:23;47.25;;;25.90;;
29238;SDS011;16267;48.194;11.546;2022-12-10T05:38:53;48.97;;;25.95;;
29238;SDS011;16267;48.194;11.546;2022-12-10T05:41:21;42.33;;;25.13;;
29238;SDS011;16267;48.194;11.546;2022-12-10T05:43:50;45.88;;;27.00;;
29238;SDS011;16267;48.194;11.546;2022-12-10T05:46:19;45.40;;;25.80;;
29238;SDS011;16267;48.194;11.546;2022-12-10T05:48:49;47.13;;;27.30;;
29238;SDS011;16267;48.194;11.546;2022-12-10T05:51:20;51.47;;;27.25;;
29238;SDS011;16267;48.194;11.546;2022-12-10T05:53:48;43.30;;;25.38;;
29238;SDS011;16267;48.194;11.546;2022-12-10T05:56:15;52.40;;;26.88;;
29238;SDS011;16267;48.194;11.546;2022-12-10T05:58:44;45.85;;;25.17;;
29238;SDS011;16267;48.194;11.546;2022-12-10T06:01:13;49.85;;;26.55;;
29238;SDS011;16267;48.194;11.546;2022-12-10T06:03:45;42.42;;;24.40;;
29238;SDS011;16267;48.194;11.546;2022-12-10T06:06:11;44.70;;;25.17;;
29238;SDS011;16267;48.194;11.546;2022-12-10T06:08:38;41.47;;;24.50;;
29238;SDS011;16267;48.194;11.546;2022-12-10T06:11:08;44.70;;;26.17;;
29238;SDS011;16267;48.194;11.546;2022-12-10T06:13:35;46.38;;;26.10;;
29238;SDS011;16267;48.194;11.546;2022-12-10T06:16:06;46.15;;;25.13;;
29238;SDS011;16267;48.194;11.546;2022-12-10T06:18:34;33.67;;;19.35;;
29238;SDS011;16267;48.194;11.546;2022-12-10T06:21:11;49.30;;;26.20;;
29238;SDS011;16267;48.194;11.546;2022-12-10T06:23:41;59.45;;;24.95;;
29238;SDS011;16267;48.194;11.546;2022-12-10T06:26:15;43.92;;;26.58;;
29238;SDS011;16267;48.194;11.546;2022-12-10T06:28:50;46.42;;;25.10;;
29238;SDS011;16267;48.194;11.546;2022-12-10T06:31:17;44.03;;;24.15;;
29238;SDS011;16267;48.194;11.546;2022-12-10T06:33:43;44.67;;;24.52;;
29238;SDS011;16267;48.194;11.546;2022-12-10T06:36:10;43.88;;;24.67;;
29238;SDS011;16267;48.194;11.546;2022-12-10T06:38:38;44.58;;;25.80;;
29238;SDS011;16267;48.194;11.546;2022-12-10T06:41:05;43.30;;;24.35;;
29238;SDS011;16267;48.194;11.546;2022-12-10T06:43:34;42.88;;;24.25;;
29238;SDS011;16267;48.194;11.546;2022-12-10T06:46:04;42.15;;;24.35;;
29238;SDS011;16267;48.194;11.546;2022-12-10T06:48:35;47.45;;;25.40;;
29238;SDS011;16267;48.194;11.546;2022-12-10T06:51:01;43.17;;;24.00;;
29238;SDS011;16267;48.194;11.546;2022-12-10T06:53:29;42.47;;;24.80;;
29238;SDS011;16267;48.194;11.546;2022-12-10T06:55:57;43.40;;;23.90;;
29238;SDS011;16267;48.194;11.546;2022-12-10T06:58:26;41.58;;;23.60;;
29238;SDS011;16267;48.194;11.546;2022-12-10T07:01:05;41.38;;;24.67;;
29238;SDS011;16267;48.194;11.546;2022-12-10T07:03:34;44.95;;;25.50;;
29238;SDS011;16267;48.194;11.546;2022-12-10T07:06:01;45.38;;;24.77;;
29238;SDS011;16267;48.194;11.546;2022-12-10T07:08:28;44.53;;;24.98;;
29238;SDS011;16267;48.194;11.546;2022-12-10T07:10:54;43.85;;;25.17;;
29238;SDS011;16267;48.194;11.546;2022-12-10T07:13:21;46.60;;;25.70;;
29238;SDS011;16267;48.194;11.546;2022-12-10T07:15:47;40.53;;;23.52;;
29238;SDS011;16267;48.194;11.546;2022-12-10T07:18:13;51.65;;;25.02;;
29238;SDS011;16267;48.194;11.546;2022-12-10T07:20:39;43.45;;;24.45;;
29238;SDS011;16267;48.194;11.546;2022-12-10T07:23:05;43.53;;;24.50;;
29238;SDS011;16267;48.194;11.546;2022-12-10T07:25:31;42.88;;;24.25;;
29238;SDS011;16267;48.194;11.546;2022-12-10T07:27:58;40.92;;;24.60;;
29238;SDS011;16267;48.194;11.546;2022-12-10T07:30:24;41.05;;;23.95;;
29238;SDS011;16267;48.194;11.546;2022-12-10T07:32:50;45.65;;;26.13;;
29238;SDS011;16267;48.194;11.546;2022-12-10T07:35:15;45.50;;;25.33;;
29238;SDS011;16267;48.194;11.546;2022-12-10T07:37:41;44.08;;;25.02;;
29238;SDS011;16267;48.194;11.546;2022-12-10T07:40:07;47.80;;;25.88;;
29238;SDS011;16267;48.194;11.546;2022-12-10T07:42:34;47.38;;;26.23;;
29238;SDS011;16267;48.194;11.546;2022-12-10T07:45:00;51.22;;;27.60;;
29238;SDS011;16267;48.194;11.546;2022-12-10T07:47:25;48.33;;;26.40;;
29238;SDS011;16267;48.194;11.546;2022-12-10T07:49:51;50.25;;;27.40;;
29238;SDS011;16267;48.194;11.546;2022-12-10T07:52:18;45.80;;;26.92;;
29238;SDS011;16267;48.194;11.546;2022-12-10T07:54:43;56.05;;;28.55;;
29238;SDS011;16267;48.194;11.546;2022-12-10T07:57:09;50.20;;;26.90;;
29238;SDS011;16267;48.194;11.546;2022-12-10T07:59:35;56.30;;;28.98;;
29238;SDS011;16267;48.194;11.546;2022-12-10T08:02:01;49.17;;;26.70;;
29238;SDS011;16267;48.194;11.546;2022-12-10T08:04:29;54.50;;;28.63;;
29238;SDS011;16267;48.194;11.546;2022-12-10T08:06:55;47.83;;;26.88;;
29238;SDS011;16267;48.194;11.546;2022-12-10T08:09:22;47.70;;;27.02;;
29238;SDS011;16267;48.194;11.546;2022-12-10T08:11:48;56.90;;;28.00;;
29238;SDS011;16267;48.194;11.546;2022-12-10T08:14:14;87.93;;;45.25;;
29238;SDS011;16267;48.194;11.546;2022-12-10T08:16:40;59.97;;;31.40;;
29238;SDS011;16267;48.194;11.546;2022-12-10T08:19:06;57.55;;;31.75;;
29238;SDS011;16267;48.194;11.546;2022-12-10T08:21:32;58.20;;;32.20;;
29238;SDS011;16267;48.194;11.546;2022-12-10T08:23:58;56.67;;;31.50;;
29238;SDS011;16267;48.194;11.546;2022-12-10T08:26:26;52.50;;;28.98;;
29238;SDS011;16267;48.194;11.546;2022-12-10T08:28:55;53.83;;;30.00;;
29238;SDS011;16267;48.194;11.546;2022-12-10T08:31:22;59.03;;;28.73;;
29238;SDS011;16267;48.194;11.546;2022-12-10T08:33:53;51.55;;;29.27;;
29238;SDS011;16267;48.194;11.546;2022-12-10T08:36:19;60.08;;;30.38;;
29238;SDS011;16267;48.194;11.546;2022-12-10T08:38:45;75.80;;;36.67;;
29238;SDS011;16267;48.194;11.546;2022-12-10T08:41:16;79.47;;;39.53;;
29238;SDS011;16267;48.194;11.546;2022-12-10T08:43:47;57.95;;;32.97;;
29238;SDS011;16267;48.194;11.546;2022-12-10T08:46:16;62.65;;;32.85;;
29238;SDS011;16267;48.194;11.546;2022-12-10T08:48:42;55.75;;;31.02;;
29238;SDS011;16267;48.194;11.546;2022-12-10T08:51:10;55.15;;;31.48;;
29238;SDS011;16267;48.194;11.546;2022-12-10T08:53:40;58.00;;;30.33;;
29238;SDS011;16267;48.194;11.546;2022-12-10T08:56:06;53.85;;;29.00;;
29238;SDS011;16267;48.194;11.546;2022-12-10T08:58:32;57.50;;;31.35;;
29238;SDS011;16267;48.194;11.546;2022-12-10T09:00:58;52.20;;;28.92;;
29238;SDS011;16267;48.194;11.546;2022-12-10T09:03:24;57.17;;;29.42;;
29238;SDS011;16267;48.194;11.546;2022-12-10T09:05:50;56.28;;;30.33;;
29238;SDS011;16267;48.194;11.546;2022-12-10T09:08:15;55.95;;;28.38;;
29238;SDS011;16267;48.194;11.546;2022-12-10T09:10:41;61.95;;;34.45;;
29238;SDS011;16267;48.194;11.546;2022-12-10T09:13:08;63.92;;;32.25;;
29238;SDS011;16267;48.194;11.546;2022-12-10T09:15:34;55.33;;;29.75;;
29238;SDS011;16267;48.194;11.546;2022-12-10T09:18:00;55.63;;;28.63;;
29238;SDS011;16267;48.194;11.546;2022-12-10T09:20:26;54.03;;;28.95;;
29238;SDS011;16267;48.194;11.546;2022-12-10T09:22:52;51.30;;;28.05;;
29238;SDS011;16267;48.194;11.546;2022-12-10T09:25:18;48.15;;;26.90;;
29238;SDS011;16267;48.194;11.546;2022-12-10T09:27:46;52.03;;;28.55;;
29238;SDS011;16267;48.194;11.546;2022-12-10T09:30:12;55.58;;;30.42;;
29238;SDS011;16267;48.194;11.546;2022-12-10T09:32:38;61.47;;;29.67;;
29238;SDS011;16267;48.194;11.546;2022-12-10T09:35:04;52.85;;;28.83;;
29238;SDS011;16267;48.194;11.546;2022-12-10T09:37:31;54.08;;;27.33;;
29238;SDS011;16267;48.194;11.546;2022-12-10T09:39:57;53.13;;;28.50;;
29238;SDS011;16267;48.194;11.546;2022-12-10T09:42:31;51.45;;;27.55;;
29238;SDS011;16267;48.194;11.546;2022-12-10T09:45:26;48.70;;;26.33;;
29238;SDS011;16267;48.194;11.546;2022-12-10T09:53:42;57.35;;;29.05;;
29238;SDS011;16267;48.194;11.546;2022-12-10T09:56:16;52.88;;;27.45;;
29238;SDS011;16267;48.194;11.546;2022-12-10T09:58:48;52.00;;;28.58;;
29238;SDS011;16267;48.194;11.546;2022-12-10T10:01:14;57.72;;;28.02;;
29238;SDS011;16267;48.194;11.546;2022-12-10T10:03:45;57.30;;;28.95;;
29238;SDS011;16267;48.194;11.546;2022-12-10T10:06:14;58.50;;;29.58;;
29238;SDS011;16267;48.194;11.546;2022-12-10T10:08:42;59.50;;;29.02;;
29238;SDS011;16267;48.194;11.546;2022-12-10T10:11:14;57.78;;;28.90;;
29238;SDS011;16267;48.194;11.546;2022-12-10T10:13:49;53.72;;;28.25;;
29238;SDS011;16267;48.194;11.546;2022-12-10T10:16:48;53.42;;;27.75;;
29238;SDS011;16267;48.194;11.546;2022-12-10T10:19:21;55.75;;;27.58;;
29238;SDS011;16267;48.194;11.546;2022-12-10T10:22:00;55.85;;;28.55;;
29238;SDS011;16267;48.194;11.546;2022-12-10T10:24:28;55.67;;;29.58;;
29238;SDS011;16267;48.194;11.546;2022-12-10T10:27:17;56.20;;;28.75;;
29238;SDS011;16267;48.194;11.546;2022-12-10T10:32:25;58.78;;;28.73;;
29238;SDS011;16267;48.194;11.546;2022-12-10T10:35:32;58.58;;;29.85;;
29238;SDS011;16267;48.194;11.546;2022-12-10T10:38:13;64.70;;;30.02;;
29238;SDS011;16267;48.194;11.546;2022-12-10T10:40:46;55.60;;;29.10;;
29238;SDS011;16267;48.194;11.546;2022-12-10T10:43:27;53.70;;;29.23;;
29238;SDS011;16267;48.194;11.546;2022-12-10T10:46:12;57.20;;;30.25;;
29238;SDS011;16267;48.194;11.546;2022-12-10T10:48:43;54.53;;;29.50;;
29238;SDS011;16267;48.194;11.546;2022-12-10T10:51:15;54.60;;;29.38;;
29238;SDS011;16267;48.194;11.546;2022-12-10T10:53:48;55.40;;;29.55;;
29238;SDS011;16267;48.194;11.546;2022-12-10T10:56:21;57.67;;;30.05;;
29238;SDS011;16267;48.194;11.546;2022-12-10T11:01:49;59.88;;;31.17;;
29238;SDS011;16267;48.194;11.546;2022-12-10T11:04:21;59.50;;;29.25;;
29238;SDS011;16267;48.194;11.546;2022-12-10T11:06:54;52.92;;;29.27;;
29238;SDS011;16267;48.194;11.546;2022-12-10T11:09:26;57.45;;;28.33;;
29238;SDS011;16267;48.194;11.546;2022-12-10T11:11:59;55.30;;;28.15;;
29238;SDS011;16267;48.194;11.546;2022-12-10T11:14:33;51.42;;;28.27;;
29238;SDS011;16267;48.194;11.546;2022-12-10T11:19:36;50.70;;;26.98;;
29238;SDS011;16267;48.194;11.546;2022-12-10T11:22:16;53.20;;;27.83;;
29238;SDS011;16267;48.194;11.546;2022-12-10T11:24:47;70.93;;;28.63;;
29238;SDS011;16267;48.194;11.546;2022-12-10T11:28:00;52.67;;;28.10;;
29238;SDS011;16267;48.194;11.546;2022-12-10T11:30:55;54.80;;;27.23;;
29238;SDS011;16267;48.194;11.546;2022-12-10T11:37:08;52.42;;;26.67;;
29238;SDS011;16267;48.194;11.546;2022-12-10T11:57:49;54.80;;;28.05;;
29238;SDS011;16267;48.194;11.546;2022-12-10T12:06:45;52.10;;;27.45;;
29238;SDS011;16267;48.194;11.546;2022-12-10T12:21:33;54.10;;;28.10;;
29238;SDS011;16267;48.194;11.546;2022-12-10T12:24:04;58.70;;;29.27;;
29238;SDS011;16267;48.194;11.546;2022-12-10T12:26:46;56.10;;;29.83;;
29238;SDS011;16267;48.194;11.546;2022-12-10T12:29:25;56.45;;;29.95;;
29238;SDS011;16267;48.194;11.546;2022-12-10T12:35:15;97.20;;;32.13;;
29238;SDS011;16267;48.194;11.546;2022-12-10T12:37:58;64.35;;;30.50;;
29238;SDS011;16267;48.194;11.546;2022-12-10T12:44:24;57.53;;;29.25;;
29238;SDS011;16267;48.194;11.546;2022-12-10T12:47:23;51.23;;;25.37;;
29238;SDS011;16267;48.194;11.546;2022-12-10T12:50:26;59.53;;;28.92;;
29238;SDS011;16267;48.194;11.546;2022-12-10T12:53:20;54.80;;;29.67;;
29238;SDS011;16267;48.194;11.546;2022-12-10T13:04:23;55.10;;;29.98;;
29238;SDS011;16267;48.194;11.546;2022-12-10T13:09:44;62.63;;;30.60;;
29238;SDS011;16267;48.194;11.546;2022-12-10T13:13:05;63.13;;;32.00;;
29238;SDS011;16267;48.194;11.546;2022-12-10T13:20:48;55.28;;;30.25;;
29238;SDS011;16267;48.194;11.546;2022-12-10T13:23:30;58.05;;;31.25;;
29238;SDS011;16267;48.194;11.546;2022-12-10T13:25:59;58.08;;;29.30;;
29238;SDS011;16267;48.194;11.546;2022-12-10T13:31:22;53.05;;;29.95;;
29238;SDS011;16267;48.194;11.546;2022-12-10T13:36:29;56.22;;;30.42;;
29238;SDS011;16267;48.194;11.546;2022-12-10T13:41:31;58.28;;;30.13;;
29238;SDS011;16267;48.194;11.546;2022-12-10T13:44:46;55.05;;;29.17;;
29238;SDS011;16267;48.194;11.546;2022-12-10T13:50:03;53.67;;;28.80;;
29238;SDS011;16267;48.194;11.546;2022-12-10T13:55:55;57.25;;;31.27;;
29238;SDS011;16267;48.194;11.546;2022-12-10T14:07:42;51.10;;;28.58;;
29238;SDS011;16267;48.194;11.546;2022-12-10T14:10:13;49.83;;;28.10;;
29238;SDS011;16267;48.194;11.546;2022-12-10T14:12:43;55.13;;;29.17;;
29238;SDS011;16267;48.194;11.546;2022-12-10T14:18:00;55.53;;;28.38;;
29238;SDS011;16267;48.194;11.546;2022-12-10T14:20:45;49.90;;;28.45;;
29238;SDS011;16267;48.194;11.546;2022-12-10T14:23:49;52.78;;;29.27;;
29238;SDS011;16267;48.194;11.546;2022-12-10T14:28:54;49.33;;;27.65;;
29238;SDS011;16267;48.194;11.546;2022-12-10T14:31:30;56.78;;;29.85;;
29238;SDS011;16267;48.194;11.546;2022-12-10T14:34:05;50.70;;;28.90;;
29238;SDS011;16267;48.194;11.546;2022-12-10T14:36:39;51.72;;;29.70;;
29238;SDS011;16267;48.194;11.546;2022-12-10T14:39:13;49.22;;;28.23;;
29238;SDS011;16267;48.194;11.546;2022-12-10T14:41:53;54.65;;;28.35;;
29238;SDS011;16267;48.194;11.546;2022-12-10T14:44:23;49.83;;;28.17;;
29238;SDS011;16267;48.194;11.546;2022-12-10T14:46:50;52.17;;;29.58;;
29238;SDS011;16267;48.194;11.546;2022-12-10T14:49:26;48.22;;;27.52;;
29238;SDS011;16267;48.194;11.546;2022-12-10T14:51:52;51.63;;;29.80;;
29238;SDS011;16267;48.194;11.546;2022-12-10T14:54:24;54.03;;;28.88;;
29238;SDS011;16267;48.194;11.546;2022-12-10T14:56:55;51.50;;;29.42;;
29238;SDS011;16267;48.194;11.546;2022-12-10T14:59:26;53.78;;;29.77;;
29238;SDS011;16267;48.194;11.546;2022-12-10T15:02:03;54.00;;;30.80;;
29238;SDS011;16267;48.194;11.546;2022-12-10T15:04:51;52.58;;;28.95;;
29238;SDS011;16267;48.194;11.546;2022-12-10T15:07:22;56.08;;;31.08;;
29238;SDS011;16267;48.194;11.546;2022-12-10T15:09:55;57.17;;;31.55;;
29238;SDS011;16267;48.194;11.546;2022-12-10T15:15:02;55.92;;;31.75;;
29238;SDS011;16267;48.194;11.546;2022-12-10T15:17:35;53.83;;;29.92;;
29238;SDS011;16267;48.194;11.546;2022-12-10T15:20:24;53.00;;;30.13;;
29238;SDS011;16267;48.194;11.546;2022-12-10T15:28:40;57.45;;;34.30;;
29238;SDS011;16267;48.194;11.546;2022-12-10T15:33:57;50.40;;;29.00;;
29238;SDS011;16267;48.194;11.546;2022-12-10T15:36:42;52.67;;;28.80;;
29238;SDS011;16267;48.194;11.546;2022-12-10T15:39:21;53.75;;;29.15;;
29238;SDS011;16267;48.194;11.546;2022-12-10T15:41:57;49.75;;;28.98;;
29238;SDS011;16267;48.194;11.546;2022-12-10T15:49:34;52.72;;;29.63;;
29238;SDS011;16267;48.194;11.546;2022-12-10T15:52:01;49.10;;;26.70;;
29238;SDS011;16267;48.194;11.546;2022-12-10T15:54:35;51.53;;;29.00;;
29238;SDS011;16267;48.194;11.546;2022-12-10T15:59:46;40.47;;;22.58;;
29238;SDS011;16267;48.194;11.546;2022-12-10T16:02:32;47.03;;;27.38;;
29238;SDS011;16267;48.194;11.546;2022-12-10T16:05:25;48.55;;;28.17;;
29238;SDS011;16267;48.194;11.546;2022-12-10T16:07:54;46.60;;;26.10;;
29238;SDS011;16267;48.194;11.546;2022-12-10T16:10:24;45.95;;;25.98;;
29238;SDS011;16267;48.194;11.546;2022-12-10T16:12:59;48.15;;;25.73;;
29238;SDS011;16267;48.194;11.546;2022-12-10T16:15:33;45.63;;;24.65;;
29238;SDS011;16267;48.194;11.546;2022-12-10T16:18:10;45.13;;;25.23;;
29238;SDS011;16267;48.194;11.546;2022-12-10T16:20:36;43.15;;;24.20;;
29238;SDS011;16267;48.194;11.546;2022-12-10T16:23:03;44.28;;;25.80;;
29238;SDS011;16267;48.194;11.546;2022-12-10T16:25:31;44.95;;;25.20;;
29238;SDS011;16267;48.194;11.546;2022-12-10T16:27:58;39.80;;;22.83;;
29238;SDS011;16267;48.194;11.546;2022-12-10T16:32:58;42.13;;;24.40;;
29238;SDS011;16267;48.194;11.546;2022-12-10T16:35:23;43.85;;;24.98;;
29238;SDS011;16267;48.194;11.546;2022-12-10T16:37:49;50.92;;;28.17;;
29238;SDS011;16267;48.194;11.546;2022-12-10T16:40:20;49.92;;;26.88;;
29238;SDS011;16267;48.194;11.546;2022-12-10T16:42:48;49.92;;;27.15;;
29238;SDS011;16267;48.194;11.546;2022-12-10T16:45:26;47.63;;;26.67;;
29238;SDS011;16267;48.194;11.546;2022-12-10T16:47:57;48.42;;;26.55;;
29238;SDS011;16267;48.194;11.546;2022-12-10T16:50:23;51.80;;;29.08;;
29238;SDS011;16267;48.194;11.546;2022-12-10T16:52:49;56.78;;;30.98;;
29238;SDS011;16267;48.194;11.546;2022-12-10T16:55:21;55.67;;;30.98;;